createdAt,value
2024-05-09T00:00:06.341Z,13.77
2024-05-09T00:05:14.482Z,15.07
2024-05-09T00:10:28.811Z,18.53
2024-05-09T00:15:43.295Z,15.82
2024-05-09T00:20:49.023Z,14.98
2024-05-09T00:25:54.637Z,16.67
2024-05-09T00:31:02.957Z,16.10
2024-05-09T00:36:12.380Z,13.27
2024-05-09T00:41:19.850Z,15.30
2024-05-09T00:46:28.534Z,14.68
2024-05-09T00:51:34.261Z,16.20
2024-05-09T00:56:39.816Z,16.73
2024-05-09T01:01:49.148Z,15.38
2024-05-09T01:06:54.845Z,14.73
2024-05-09T01:12:00.610Z,15.80
2024-05-09T01:17:09.887Z,15.98
2024-05-09T01:22:15.469Z,11.43
2024-05-09T01:27:24.128Z,14.85
2024-05-09T01:32:30.000Z,16.42
2024-05-09T01:37:35.536Z,15.90
2024-05-09T01:42:43.649Z,14.57
2024-05-09T01:47:49.389Z,12.88
2024-05-09T01:52:54.960Z,12.60
2024-05-09T01:58:03.232Z,12.93
2024-05-09T02:03:15.206Z,14.57
2024-05-09T02:08:24.031Z,13.88
2024-05-09T02:13:32.195Z,14.10
2024-05-09T02:18:37.846Z,13.98
2024-05-09T02:23:43.476Z,13.35
2024-05-09T02:28:51.646Z,14.48
2024-05-09T02:33:57.205Z,14.10
2024-05-09T02:39:02.756Z,13.88
2024-05-09T02:44:10.954Z,12.27
2024-05-09T02:49:16.637Z,12.50
2024-05-09T02:54:25.311Z,17.90
2024-05-09T02:59:33.504Z,16.25
2024-05-09T03:04:39.006Z,13.77
2024-05-09T03:09:49.237Z,13.80
2024-05-09T03:14:57.429Z,15.23
2024-05-09T03:20:05.158Z,14.65
2024-05-09T03:25:11.033Z,14.95
2024-05-09T03:30:26.184Z,15.35
2024-05-09T03:35:41.095Z,16.23
2024-05-09T03:40:50.699Z,15.25
2024-05-09T03:45:59.243Z,14.32
2024-05-09T03:51:05.020Z,16.52
2024-05-09T03:56:11.233Z,15.43
2024-05-09T04:01:19.528Z,17.47
2024-05-09T04:06:26.505Z,15.07
2024-05-09T04:16:39.938Z,14.82
2024-05-09T04:21:45.403Z,16.58
2024-05-09T04:26:50.919Z,18.02
2024-05-09T04:31:59.152Z,17.42
2024-05-09T04:37:05.205Z,15.88
2024-05-09T04:42:10.720Z,18.35
2024-05-09T04:47:20.029Z,17.27
2024-05-09T04:52:25.693Z,19.27
2024-05-09T04:57:31.150Z,19.35
2024-05-09T05:02:39.578Z,19.50
2024-05-09T05:07:45.207Z,21.48
2024-05-09T05:13:06.405Z,15.73
2024-05-09T05:18:15.072Z,19.55
2024-05-09T05:23:23.734Z,24.92
2024-05-09T05:28:32.413Z,21.17
2024-05-09T05:33:40.683Z,21.20
2024-05-09T05:38:46.316Z,22.95
2024-05-09T05:43:52.044Z,27.98
2024-05-09T05:49:00.356Z,22.05
2024-05-09T05:54:05.880Z,18.75
2024-05-09T05:59:14.035Z,21.45
2024-05-09T06:04:23.227Z,23.52
2024-05-09T06:09:28.996Z,21.52
2024-05-09T06:14:34.700Z,22.45
2024-05-09T06:19:49.785Z,24.52
2024-05-09T06:24:55.382Z,24.70
2024-05-09T06:30:00.807Z,23.05
2024-05-09T06:35:09.328Z,22.25
2024-05-09T06:40:21.127Z,21.52
2024-05-09T06:45:30.518Z,24.70
2024-05-09T06:50:39.738Z,21.25
2024-05-09T06:55:46.072Z,21.65
2024-05-09T07:00:51.578Z,19.55
2024-05-09T07:05:59.886Z,23.70
2024-05-09T07:11:05.555Z,23.65
2024-05-09T07:16:11.123Z,26.67
2024-05-09T07:21:19.429Z,24.98
2024-05-09T07:26:25.096Z,27.48
2024-05-09T07:31:31.451Z,28.00
2024-05-09T07:36:39.640Z,24.75
2024-05-09T07:41:45.217Z,30.20
2024-05-09T07:47:52.321Z,26.65
2024-05-09T07:57:27.740Z,28.45
2024-05-09T08:02:33.726Z,30.17
2024-05-09T08:07:42.103Z,28.30
2024-05-09T08:12:47.837Z,27.23
2024-05-09T08:17:53.587Z,25.45
2024-05-09T08:23:01.814Z,23.65
2024-05-09T08:28:08.031Z,21.52
2024-05-09T08:33:13.596Z,19.45
2024-05-09T08:38:21.799Z,23.00
2024-05-09T08:43:29.354Z,23.48
2024-05-09T08:48:39.367Z,17.58
2024-05-09T08:53:47.644Z,17.15
2024-05-09T08:58:59.053Z,13.27
2024-05-09T09:04:06.871Z,17.08
2024-05-09T09:09:15.371Z,12.50
2024-05-09T09:14:22.903Z,20.75
2024-05-09T09:19:28.755Z,18.88
2024-05-09T09:24:37.003Z,14.85
2024-05-09T09:29:42.820Z,17.05
2024-05-09T09:34:50.800Z,18.75
2024-05-09T09:40:00.920Z,16.92
2024-05-09T09:45:07.030Z,22.65
2024-05-09T09:50:17.125Z,16.13
2024-05-09T09:55:29.201Z,30.15
2024-05-09T10:00:36.720Z,24.30
2024-05-09T10:05:45.280Z,24.98
2024-05-09T10:10:55.546Z,22.73
2024-05-09T10:16:01.167Z,18.90
2024-05-09T10:21:18.509Z,18.73
2024-05-09T10:26:33.829Z,20.52
2024-05-09T10:31:43.868Z,18.40
2024-05-09T10:36:49.474Z,17.58
2024-05-09T10:41:57.552Z,14.43
2024-05-09T10:47:03.062Z,17.20
2024-05-09T10:52:10.426Z,14.07
2024-05-09T10:57:19.002Z,11.32
2024-05-09T11:02:24.831Z,13.95
2024-05-09T11:07:30.441Z,14.57
2024-05-09T11:12:38.675Z,12.20
2024-05-09T11:17:44.320Z,13.00
2024-05-09T11:22:49.865Z,15.18
2024-05-09T11:28:01.635Z,16.50
2024-05-09T11:33:07.716Z,12.55
2024-05-09T11:38:13.697Z,11.63
2024-05-09T11:43:23.016Z,12.18
2024-05-09T11:48:29.424Z,11.43
2024-05-09T11:53:35.163Z,11.63
2024-05-09T11:58:43.626Z,14.50
2024-05-09T12:03:51.460Z,12.63
2024-05-09T12:08:57.237Z,11.85
2024-05-09T12:14:05.529Z,11.98
2024-05-09T12:19:11.071Z,9.45
2024-05-09T12:24:18.446Z,9.52
2024-05-09T12:29:27.055Z,14.15
2024-05-09T12:34:32.699Z,8.73
2024-05-09T12:39:38.240Z,9.68
2024-05-09T12:44:46.339Z,11.70
2024-05-09T12:49:52.061Z,12.13
2024-05-09T12:54:57.866Z,12.93
2024-05-09T13:00:09.270Z,11.63
2024-05-09T13:05:17.332Z,8.95
2024-05-09T13:10:29.429Z,20.00
2024-05-09T13:15:41.091Z,22.70
2024-05-09T13:20:47.429Z,14.38
2024-05-09T13:25:53.058Z,15.63
2024-05-09T13:31:01.294Z,13.73
2024-05-09T13:36:07.359Z,16.10
2024-05-09T13:41:12.910Z,20.47
2024-05-09T13:46:21.470Z,11.07
2024-05-09T13:51:27.147Z,15.18
2024-05-09T13:56:32.646Z,17.33
2024-05-09T14:01:40.850Z,12.35
2024-05-09T14:06:46.555Z,16.23
2024-05-09T14:11:52.079Z,18.33
2024-05-09T14:17:00.387Z,17.70
2024-05-09T14:22:06.313Z,16.52
2024-05-09T14:27:12.041Z,14.40
2024-05-09T14:32:20.360Z,16.92
2024-05-09T14:37:26.085Z,19.38
2024-05-09T14:42:32.672Z,17.60
2024-05-09T14:52:46.911Z,21.17
2024-05-09T14:57:52.448Z,19.87
2024-05-09T15:03:00.962Z,21.58
2024-05-09T15:08:09.718Z,18.20
2024-05-09T15:13:16.714Z,19.42
2024-05-09T15:18:25.426Z,18.45
2024-05-09T15:23:31.108Z,19.73
2024-05-09T15:28:36.628Z,20.25
2024-05-09T15:33:44.815Z,18.83
2024-05-09T15:38:50.506Z,19.05
2024-05-09T15:43:56.058Z,16.23
2024-05-09T15:49:04.449Z,17.70
2024-05-09T15:54:10.065Z,15.20
2024-05-09T15:59:15.759Z,17.92
2024-05-09T16:04:24.181Z,14.40
2024-05-09T16:09:29.888Z,13.85
2024-05-09T16:14:35.371Z,13.60
2024-05-09T16:19:43.877Z,16.17
2024-05-09T16:24:49.449Z,16.02
2024-05-09T16:29:55.918Z,18.88
2024-05-09T16:35:04.084Z,18.27
2024-05-09T16:40:21.739Z,15.32
2024-05-09T16:45:35.349Z,18.23
2024-05-09T16:50:43.640Z,18.23
2024-05-09T16:55:49.311Z,16.65
2024-05-09T17:00:54.984Z,16.90
2024-05-09T17:06:05.581Z,16.83
2024-05-09T17:11:12.313Z,14.60
2024-05-09T17:21:26.640Z,14.30
2024-05-09T17:26:32.568Z,17.73
2024-05-09T17:31:38.110Z,18.23
2024-05-09T17:36:47.969Z,18.95
2024-05-09T17:41:54.547Z,17.98
2024-05-09T17:47:00.292Z,21.85
2024-05-09T17:52:09.267Z,22.17
2024-05-09T17:57:14.850Z,20.90
2024-05-09T18:02:20.572Z,19.85
2024-05-09T18:07:28.742Z,22.52
2024-05-09T18:12:34.383Z,24.60
2024-05-09T18:17:40.292Z,23.85
2024-05-09T18:22:48.435Z,26.53
2024-05-09T18:27:54.928Z,27.25
2024-05-09T18:33:00.797Z,27.10
2024-05-09T18:38:09.117Z,24.97
2024-05-09T18:43:14.607Z,24.17
2024-05-09T18:48:21.894Z,26.83
2024-05-09T18:53:30.130Z,29.67
2024-05-09T18:58:35.771Z,30.30
2024-05-09T19:03:41.650Z,28.25
2024-05-09T19:08:50.044Z,25.33
2024-05-09T19:13:56.003Z,25.33
2024-05-09T19:19:01.781Z,26.47
2024-05-09T19:24:10.079Z,29.47
2024-05-09T19:29:15.636Z,29.23
2024-05-09T19:34:21.334Z,28.55
2024-05-09T19:39:29.577Z,30.40
2024-05-09T19:44:35.509Z,29.58
2024-05-09T19:49:41.096Z,28.00
2024-05-09T19:54:50.018Z,26.63
2024-05-09T19:59:55.684Z,35.47
2024-05-09T20:05:02.415Z,29.70
2024-05-09T20:10:20.405Z,33.63
2024-05-09T20:15:29.722Z,33.90
2024-05-09T20:20:39.585Z,32.08
2024-05-09T20:25:50.817Z,32.95
2024-05-09T20:30:56.643Z,32.75
2024-05-09T20:36:02.793Z,33.20
2024-05-09T20:41:11.115Z,32.80
2024-05-09T20:46:17.881Z,38.78
2024-05-09T20:56:31.353Z,35.88
2024-05-09T21:01:37.061Z,38.75
2024-05-09T21:06:42.678Z,40.75
2024-05-09T21:11:51.132Z,37.92
2024-05-09T21:17:05.192Z,40.03
2024-05-09T21:22:10.916Z,41.15
2024-05-09T21:27:19.261Z,36.83
2024-05-09T21:32:27.421Z,40.25
2024-05-09T21:37:34.562Z,40.78
2024-05-09T21:42:42.779Z,40.25
2024-05-09T21:47:50.990Z,44.97
2024-05-09T21:52:59.405Z,42.17
2024-05-09T21:58:08.088Z,41.78
2024-05-09T22:03:14.562Z,47.58
2024-05-09T22:08:20.327Z,39.42
2024-05-09T22:13:28.931Z,42.87
2024-05-09T22:18:34.590Z,42.97
2024-05-09T22:23:40.228Z,45.58
2024-05-09T22:28:48.318Z,47.15
2024-05-09T22:33:54.122Z,45.83
2024-05-09T22:38:59.898Z,46.53
2024-05-09T22:44:08.495Z,44.30
2024-05-09T22:49:14.196Z,47.40
2024-05-09T22:54:19.841Z,51.60
2024-05-09T22:59:32.225Z,51.08
2024-05-09T23:04:41.574Z,49.92
2024-05-09T23:09:47.996Z,48.03
2024-05-09T23:14:56.107Z,49.20
2024-05-09T23:20:01.669Z,48.15
2024-05-09T23:25:07.756Z,48.10
2024-05-09T23:30:25.567Z,47.33
2024-05-09T23:35:38.218Z,48.22
2024-05-09T23:40:45.905Z,48.70
2024-05-09T23:45:54.113Z,52.83
2024-05-09T23:50:59.567Z,48.03
2024-05-09T23:56:05.077Z,47.40
